Time;durP1;ratioP1;P1;durP2;ratioP2;P2;SDS_P1;SDS_P2;PMS_P1;PMS_P2;Temp;Humidity;BMP_temperature;BMP_pressure;BME280_temperature;BME280_humidity;BME280_pressure;Samples;Min_cycle;Max_cycle;Signal;HPM_P1;HPM_P2
2023/02/22 00:00:18;;;;;;;88.65;50.35;;;;;;;;;;5071031;28;20081;-64
2023/02/22 00:02:44;;;;;;;84.07;47.85;;;;;;;;;;5070891;28;20027;-66
2023/02/22 00:05:10;;;;;;;81.55;49.80;;;;;;;;;;5081667;28;20368;-67
2023/02/22 00:07:36;;;;;;;82.45;49.53;;;;;;;;;;5108938;28;20067;-65
2023/02/22 00:10:02;;;;;;;80.53;48.55;;;;;;;;;;5109425;28;20024;-66
2023/02/22 00:12:28;;;;;;;88.00;48.60;;;;;;;;;;5109325;28;20035;-66
2023/02/22 00:14:54;;;;;;;99.70;51.25;;;;;;;;;;5104068;28;20032;-65
2023/02/22 00:17:20;;;;;;;93.15;51.90;;;;;;;;;;5062172;23;20053;-63
2023/02/22 00:19:47;;;;;;;95.90;51.13;;;;;;;;;;5049953;28;20053;-63
2023/02/22 00:22:16;;;;;;;89.93;49.70;;;;;;;;;;5050865;28;20021;-64
2023/02/22 00:24:43;;;;;;;97.95;54.40;;;;;;;;;;5055585;28;20112;-63
2023/02/22 00:27:09;;;;;;;95.10;49.00;;;;;;;;;;5061492;28;20349;-63
2023/02/22 00:29:35;;;;;;;94.13;51.08;;;;;;;;;;5062981;28;20059;-63
2023/02/22 00:32:01;;;;;;;96.82;49.92;;;;;;;;;;5071868;28;20048;-63
2023/02/22 00:34:27;;;;;;;97.32;49.38;;;;;;;;;;5061191;28;20104;-63
2023/02/22 00:36:53;;;;;;;93.70;50.80;;;;;;;;;;5070589;28;20591;-63
2023/02/22 00:39:19;;;;;;;96.78;51.30;;;;;;;;;;5072844;28;20021;-64
2023/02/22 00:41:45;;;;;;;103.82;49.80;;;;;;;;;;5072704;28;20025;-63
2023/02/22 00:44:11;;;;;;;97.10;50.65;;;;;;;;;;5068415;28;20027;-62
2023/02/22 00:46:37;;;;;;;108.80;51.75;;;;;;;;;;5064253;28;20028;-63
2023/02/22 00:49:04;;;;;;;104.18;50.17;;;;;;;;;;5072672;28;20543;-61
2023/02/22 00:51:30;;;;;;;108.45;49.78;;;;;;;;;;5072737;28;20017;-63
2023/02/22 00:53:56;;;;;;;101.28;50.63;;;;;;;;;;5071923;28;20107;-63
2023/02/22 00:56:22;;;;;;;103.32;52.15;;;;;;;;;;5071532;28;20074;-63
2023/02/22 00:58:48;;;;;;;94.63;48.35;;;;;;;;;;5072486;28;20029;-63
2023/02/22 01:01:14;;;;;;;99.22;49.05;;;;;;;;;;5070457;28;20028;-63
2023/02/22 01:03:40;;;;;;;100.35;49.08;;;;;;;;;;5070369;28;20068;-63
2023/02/22 01:06:06;;;;;;;92.28;50.13;;;;;;;;;;5072013;28;20027;-64
2023/02/22 01:08:32;;;;;;;91.85;48.63;;;;;;;;;;5070943;28;20069;-63
2023/02/22 01:10:58;;;;;;;95.10;50.63;;;;;;;;;;5071031;28;20089;-63
2023/02/22 01:13:25;;;;;;;101.65;48.90;;;;;;;;;;5071407;28;20020;-64
2023/02/22 01:15:51;;;;;;;96.68;48.60;;;;;;;;;;5071999;28;20397;-63
2023/02/22 01:18:17;;;;;;;93.38;48.65;;;;;;;;;;5071831;28;20045;-63
2023/02/22 01:21:01;;;;;;;92.82;47.58;;;;;;;;;;5070666;28;20033;-63
2023/02/22 01:23:27;;;;;;;100.82;50.50;;;;;;;;;;5069950;28;20109;-63
2023/02/22 01:25:53;;;;;;;104.63;50.55;;;;;;;;;;5070547;28;20078;-63
2023/02/22 01:28:21;;;;;;;102.75;51.30;;;;;;;;;;5070837;28;20017;-63
2023/02/22 01:30:47;;;;;;;111.65;52.97;;;;;;;;;;5070707;28;20025;-63
2023/02/22 01:33:14;;;;;;;99.78;48.60;;;;;;;;;;5069965;28;20358;-62
2023/02/22 01:35:41;;;;;;;108.93;50.90;;;;;;;;;;5070730;28;20111;-63
2023/02/22 01:38:07;;;;;;;107.10;50.28;;;;;;;;;;5071802;28;20028;-64
2023/02/22 01:40:34;;;;;;;93.55;49.65;;;;;;;;;;5070577;28;20453;-61
2023/02/22 01:43:03;;;;;;;123.07;52.03;;;;;;;;;;5071624;28;20028;-63
2023/02/22 01:45:29;;;;;;;103.90;50.00;;;;;;;;;;5071799;28;20090;-64
2023/02/22 01:48:02;;;;;;;113.90;51.63;;;;;;;;;;5071756;28;20044;-64
2023/02/22 01:50:28;;;;;;;118.10;50.30;;;;;;;;;;5070514;28;20523;-64
2023/02/22 01:52:55;;;;;;;114.75;48.67;;;;;;;;;;5070381;28;20119;-60
2023/02/22 01:55:21;;;;;;;109.88;50.05;;;;;;;;;;5071330;28;20028;-63
2023/02/22 01:57:48;;;;;;;120.47;50.25;;;;;;;;;;5071504;28;20090;-63
2023/02/22 02:00:19;;;;;;;137.43;50.30;;;;;;;;;;5070459;28;20469;-63
2023/02/22 02:02:46;;;;;;;105.30;46.50;;;;;;;;;;5071695;28;20048;-62
2023/02/22 02:05:13;;;;;;;122.47;48.20;;;;;;;;;;5070799;28;20119;-62
2023/02/22 02:07:39;;;;;;;125.22;51.13;;;;;;;;;;5070254;28;20047;-63
2023/02/22 02:10:07;;;;;;;109.45;49.42;;;;;;;;;;5071477;28;20028;-61
2023/02/22 02:12:34;;;;;;;118.93;50.00;;;;;;;;;;5070309;28;20032;-63
2023/02/22 02:15:16;;;;;;;112.85;47.08;;;;;;;;;;5070658;28;20021;-63
2023/02/22 02:17:42;;;;;;;105.78;46.33;;;;;;;;;;5071330;28;20119;-63
2023/02/22 02:20:21;;;;;;;117.90;50.38;;;;;;;;;;5071407;28;20031;-63
2023/02/22 02:23:05;;;;;;;105.35;48.47;;;;;;;;;;5071415;28;20471;-64
2023/02/22 02:25:34;;;;;;;110.32;48.88;;;;;;;;;;5070012;28;20048;-63
2023/02/22 02:28:35;;;;;;;126.38;48.20;;;;;;;;;;5071315;28;20028;-63
2023/02/22 02:31:07;;;;;;;109.22;47.33;;;;;;;;;;5028965;28;20444;-64
2023/02/22 02:33:35;;;;;;;125.95;48.03;;;;;;;;;;5059312;28;20133;-62
2023/02/22 02:36:04;;;;;;;115.93;49.77;;;;;;;;;;5071374;28;20029;-64
2023/02/22 02:38:33;;;;;;;269.92;64.53;;;;;;;;;;5071203;28;20033;-63
2023/02/22 02:40:59;;;;;;;117.05;46.47;;;;;;;;;;5074776;28;20032;-63
2023/02/22 02:43:28;;;;;;;207.15;57.03;;;;;;;;;;5074365;28;20107;-64
2023/02/22 02:45:58;;;;;;;120.75;47.65;;;;;;;;;;5073687;28;20025;-63
2023/02/22 02:48:26;;;;;;;198.32;51.72;;;;;;;;;;5075126;28;20082;-63
2023/02/22 02:50:55;;;;;;;159.13;51.45;;;;;;;;;;5073815;28;20027;-63
2023/02/22 02:53:22;;;;;;;190.85;55.20;;;;;;;;;;5072969;28;20409;-63
2023/02/22 02:55:48;;;;;;;146.65;46.08;;;;;;;;;;5073507;28;20029;-63
2023/02/22 02:58:19;;;;;;;171.52;50.03;;;;;;;;;;5074619;28;20051;-63
2023/02/22 03:00:45;;;;;;;308.52;66.88;;;;;;;;;;5073204;28;20028;-63
2023/02/22 03:03:32;;;;;;;163.45;50.25;;;;;;;;;;5072709;28;20078;-63
2023/02/22 03:06:01;;;;;;;185.65;52.47;;;;;;;;;;5073289;28;20024;-62
2023/02/22 03:08:34;;;;;;;260.65;60.55;;;;;;;;;;5073178;28;20016;-63
2023/02/22 03:11:13;;;;;;;380.83;69.53;;;;;;;;;;5057607;28;20029;-64
2023/02/22 03:13:39;;;;;;;130.18;45.92;;;;;;;;;;5061208;28;20027;-63
2023/02/22 03:16:15;;;;;;;207.57;52.30;;;;;;;;;;5056445;28;20052;-63
2023/02/22 03:18:53;;;;;;;261.17;62.70;;;;;;;;;;5057351;28;20036;-63
2023/02/22 03:21:25;;;;;;;222.40;56.08;;;;;;;;;;5064582;28;20032;-64
2023/02/22 03:23:51;;;;;;;172.32;49.53;;;;;;;;;;5070467;28;20032;-63
2023/02/22 03:26:24;;;;;;;264.10;58.25;;;;;;;;;;5067156;28;20028;-63
2023/02/22 03:28:52;;;;;;;208.48;50.90;;;;;;;;;;5073987;28;20028;-61
2023/02/22 03:31:44;;;;;;;356.03;70.97;;;;;;;;;;5063592;28;20470;-63
2023/02/22 03:34:12;;;;;;;124.53;41.53;;;;;;;;;;5030029;28;20272;-63
2023/02/22 03:36:44;;;;;;;136.40;45.90;;;;;;;;;;5032811;28;20033;-63
2023/02/22 03:39:14;;;;;;;134.07;45.22;;;;;;;;;;5034162;28;20725;-63
2023/02/22 03:41:43;;;;;;;104.35;41.72;;;;;;;;;;5033964;28;20021;-62
2023/02/22 03:44:11;;;;;;;178.95;45.67;;;;;;;;;;5058646;28;20104;-64
2023/02/22 03:46:37;;;;;;;;;;;;;;;;;;5070057;28;20021;-63
2023/02/22 03:49:11;;;;;;;220.30;51.10;;;;;;;;;;5064413;28;19908;-62
2023/02/22 03:51:38;;;;;;;155.10;44.38;;;;;;;;;;5071560;28;20062;-62
2023/02/22 03:54:05;;;;;;;177.23;50.25;;;;;;;;;;5072971;28;20021;-63
2023/02/22 03:56:35;;;;;;;140.55;45.35;;;;;;;;;;5073877;28;20095;-63
2023/02/22 03:59:03;;;;;;;103.32;41.38;;;;;;;;;;5073673;28;20044;-62
2023/02/22 04:01:29;;;;;;;140.90;41.60;;;;;;;;;;5073909;28;20056;-61
2023/02/22 04:03:55;;;;;;;217.75;47.70;;;;;;;;;;5071813;28;20052;-65
2023/02/22 04:06:21;;;;;;;292.15;60.22;;;;;;;;;;5073518;28;20068;-62
2023/02/22 04:08:47;;;;;;;115.38;39.95;;;;;;;;;;5072458;28;20025;-62
2023/02/22 04:11:13;;;;;;;126.32;39.53;;;;;;;;;;5073412;28;20020;-62
2023/02/22 04:13:39;;;;;;;98.85;36.13;;;;;;;;;;5073106;28;20024;-62
2023/02/22 04:16:05;;;;;;;122.72;37.67;;;;;;;;;;5073301;28;20111;-63
2023/02/22 04:18:31;;;;;;;90.80;35.67;;;;;;;;;;5072964;28;20037;-63
2023/02/22 04:20:57;;;;;;;105.10;36.70;;;;;;;;;;5071917;28;20119;-63
2023/02/22 04:23:23;;;;;;;98.13;36.83;;;;;;;;;;5071214;28;20036;-63
2023/02/22 04:25:49;;;;;;;86.10;36.28;;;;;;;;;;5072986;28;20469;-63
2023/02/22 04:28:15;;;;;;;70.30;31.50;;;;;;;;;;5072803;28;20108;-63
2023/02/22 04:30:42;;;;;;;147.48;40.33;;;;;;;;;;5072883;28;20441;-63
2023/02/22 04:33:09;;;;;;;98.07;36.47;;;;;;;;;;5070950;28;20115;-62
2023/02/22 04:35:35;;;;;;;163.40;42.20;;;;;;;;;;5072903;28;20043;-63
2023/02/22 04:38:03;;;;;;;86.53;34.95;;;;;;;;;;5072509;28;20032;-63
2023/02/22 04:40:29;;;;;;;162.90;42.85;;;;;;;;;;5071488;28;20021;-63
2023/02/22 04:42:55;;;;;;;70.88;35.80;;;;;;;;;;5071232;28;20025;-61
2023/02/22 04:45:21;;;;;;;124.38;40.28;;;;;;;;;;5070720;28;20029;-63
2023/02/22 04:47:47;;;;;;;70.00;34.42;;;;;;;;;;5072528;28;20027;-64
2023/02/22 04:50:13;;;;;;;125.93;38.50;;;;;;;;;;5072802;28;20025;-61
2023/02/22 04:52:40;;;;;;;73.53;35.58;;;;;;;;;;5072109;28;20024;-62
2023/02/22 04:55:06;;;;;;;108.68;37.60;;;;;;;;;;5071852;28;20027;-63
2023/02/22 04:57:32;;;;;;;103.10;36.03;;;;;;;;;;5072400;28;20103;-64
2023/02/22 04:59:58;;;;;;;124.95;42.25;;;;;;;;;;5072412;28;20056;-64
2023/02/22 05:02:24;;;;;;;140.80;38.60;;;;;;;;;;5072147;28;20374;-63
2023/02/22 05:04:50;;;;;;;108.10;38.58;;;;;;;;;;5070045;28;20024;-61
2023/02/22 05:07:17;;;;;;;108.07;38.03;;;;;;;;;;5070679;28;20085;-62
2023/02/22 05:09:43;;;;;;;87.75;37.65;;;;;;;;;;5072015;28;20020;-63
2023/02/22 05:12:09;;;;;;;87.20;37.28;;;;;;;;;;5070684;28;20026;-62
2023/02/22 05:14:35;;;;;;;87.20;36.65;;;;;;;;;;5069912;28;20119;-63
2023/02/22 05:17:01;;;;;;;71.25;36.00;;;;;;;;;;5071849;28;20028;-61
2023/02/22 05:19:27;;;;;;;80.38;36.28;;;;;;;;;;5070607;28;20405;-62
2023/02/22 05:21:55;;;;;;;64.78;34.63;;;;;;;;;;5070542;28;20069;-62
2023/02/22 05:24:21;;;;;;;70.43;36.97;;;;;;;;;;5064086;28;20033;-62
2023/02/22 05:26:50;;;;;;;75.00;38.47;;;;;;;;;;5061461;28;20633;-62
2023/02/22 05:29:16;;;;;;;108.20;39.85;;;;;;;;;;5052857;28;20028;-60
2023/02/22 05:31:42;;;;;;;109.15;40.47;;;;;;;;;;5060950;28;20028;-63
2023/02/22 05:34:08;;;;;;;95.00;39.45;;;;;;;;;;5071045;28;20025;-63
2023/02/22 05:36:34;;;;;;;99.00;38.88;;;;;;;;;;5071692;28;20102;-62
2023/02/22 05:39:00;;;;;;;109.95;41.10;;;;;;;;;;5065366;28;20027;-63
2023/02/22 05:41:27;;;;;;;121.53;42.17;;;;;;;;;;5062053;28;20028;-60
2023/02/22 05:43:53;;;;;;;97.43;38.85;;;;;;;;;;5063915;28;20369;-64
2023/02/22 05:46:19;;;;;;;68.70;36.45;;;;;;;;;;5055668;28;20112;-62
2023/02/22 05:48:45;;;;;;;96.60;39.55;;;;;;;;;;5051500;28;20044;-63
2023/02/22 05:51:11;;;;;;;84.95;38.90;;;;;;;;;;5051454;28;20026;-63
2023/02/22 05:53:37;;;;;;;69.32;36.92;;;;;;;;;;5050783;28;20036;-62
2023/02/22 05:56:04;;;;;;;113.35;40.70;;;;;;;;;;5051631;28;20102;-63
2023/02/22 05:58:30;;;;;;;133.02;42.50;;;;;;;;;;5054390;28;20078;-63
2023/02/22 06:00:56;;;;;;;112.80;40.63;;;;;;;;;;5062363;28;20017;-62
2023/02/22 06:03:22;;;;;;;94.68;37.70;;;;;;;;;;5069442;28;20144;-63
2023/02/22 06:05:48;;;;;;;69.57;33.70;;;;;;;;;;5069838;28;20435;-62
2023/02/22 06:08:14;;;;;;;101.45;39.45;;;;;;;;;;5050822;28;20024;-63
2023/02/22 06:10:40;;;;;;;62.50;33.20;;;;;;;;;;5061331;28;20055;-63
2023/02/22 06:13:06;;;;;;;64.00;33.40;;;;;;;;;;5051598;28;20385;-58
2023/02/22 06:15:33;;;;;;;77.47;37.38;;;;;;;;;;5050577;28;20025;-62
2023/02/22 06:17:59;;;;;;;54.95;32.20;;;;;;;;;;5047364;23;20409;-65
2023/02/22 06:20:26;;;;;;;74.70;35.08;;;;;;;;;;5033589;28;20037;-63
2023/02/22 06:22:53;;;;;;;102.85;37.92;;;;;;;;;;5033328;28;20022;-65
2023/02/22 06:25:21;;;;;;;68.70;34.80;;;;;;;;;;5032922;28;20025;-65
2023/02/22 06:27:47;;;;;;;79.10;38.22;;;;;;;;;;5033256;28;20397;-65
2023/02/22 06:30:14;;;;;;;65.50;35.80;;;;;;;;;;5033240;28;20022;-63
2023/02/22 06:32:40;;;;;;;55.85;35.47;;;;;;;;;;5033309;28;20067;-64
2023/02/22 06:35:06;;;;;;;143.73;40.85;;;;;;;;;;5014772;28;20057;-66
2023/02/22 06:37:32;;;;;;;133.27;38.88;;;;;;;;;;5033113;28;20021;-65
2023/02/22 06:39:58;;;;;;;56.30;30.95;;;;;;;;;;5033165;28;20095;-64
2023/02/22 06:42:24;;;;;;;49.10;30.98;;;;;;;;;;5032500;28;20034;-65
2023/02/22 06:44:50;;;;;;;46.33;31.00;;;;;;;;;;5032028;28;20538;-66
2023/02/22 06:47:16;;;;;;;55.00;32.65;;;;;;;;;;5015003;28;20033;-63
2023/02/22 06:49:42;;;;;;;81.60;35.97;;;;;;;;;;5015094;28;20026;-67
2023/02/22 06:52:08;;;;;;;56.78;33.50;;;;;;;;;;5015072;28;20036;-65
2023/02/22 06:54:34;;;;;;;107.70;34.97;;;;;;;;;;5032343;28;20017;-63
2023/02/22 06:57:00;;;;;;;88.35;34.03;;;;;;;;;;5015422;28;20025;-65
2023/02/22 06:59:26;;;;;;;56.22;31.63;;;;;;;;;;5014754;28;20513;-64
2023/02/22 07:01:53;;;;;;;83.82;35.28;;;;;;;;;;5032817;28;20036;-64
2023/02/22 07:04:19;;;;;;;116.28;38.50;;;;;;;;;;5031522;28;20100;-63
2023/02/22 07:06:48;;;;;;;106.88;35.55;;;;;;;;;;5032834;28;20101;-64
2023/02/22 07:09:15;;;;;;;59.72;31.40;;;;;;;;;;5032912;28;20494;-64
2023/02/22 07:11:41;;;;;;;72.70;32.72;;;;;;;;;;5032374;28;20106;-66
2023/02/22 07:14:08;;;;;;;61.00;31.27;;;;;;;;;;5031776;28;20108;-65
2023/02/22 07:16:35;;;;;;;81.18;34.03;;;;;;;;;;5032211;28;20116;-66
2023/02/22 07:19:01;;;;;;;55.85;31.80;;;;;;;;;;5032412;28;20087;-65
2023/02/22 07:21:30;;;;;;;58.03;32.58;;;;;;;;;;5032139;28;20440;-64
2023/02/22 07:23:58;;;;;;;48.75;31.08;;;;;;;;;;5031597;28;20034;-64
2023/02/22 07:26:24;;;;;;;54.47;30.92;;;;;;;;;;5032157;28;20079;-64
2023/02/22 07:28:50;;;;;;;62.92;32.60;;;;;;;;;;5032481;28;20028;-65
2023/02/22 07:31:16;;;;;;;56.92;32.45;;;;;;;;;;5032263;28;20029;-65
2023/02/22 07:33:42;;;;;;;65.22;33.28;;;;;;;;;;5031387;28;20030;-65
2023/02/22 07:36:08;;;;;;;83.20;33.63;;;;;;;;;;5032209;28;20386;-65
2023/02/22 07:38:34;;;;;;;56.80;31.92;;;;;;;;;;5031846;28;20032;-63
2023/02/22 07:41:00;;;;;;;71.32;34.85;;;;;;;;;;5031865;28;20021;-63
2023/02/22 07:43:28;;;;;;;67.47;36.97;;;;;;;;;;5031138;28;20074;-64
2023/02/22 07:45:55;;;;;;;52.45;31.48;;;;;;;;;;5031773;28;20029;-64
2023/02/22 07:48:21;;;;;;;41.92;29.48;;;;;;;;;;5032401;28;20017;-65
2023/02/22 07:50:47;;;;;;;40.35;29.38;;;;;;;;;;5032270;28;20028;-66
2023/02/22 07:53:21;;;;;;;40.45;28.42;;;;;;;;;;5013161;28;20083;-66
2023/02/22 07:55:50;;;;;;;37.67;27.33;;;;;;;;;;5032183;28;20021;-64
2023/02/22 07:58:17;;;;;;;40.90;28.63;;;;;;;;;;5032065;28;20381;-64
2023/02/22 08:00:43;;;;;;;40.38;29.23;;;;;;;;;;5031582;28;20029;-64
2023/02/22 08:03:12;;;;;;;51.10;30.55;;;;;;;;;;5030921;28;20417;-63
2023/02/22 08:05:39;;;;;;;57.10;29.95;;;;;;;;;;5032816;28;20030;-66
2023/02/22 08:08:05;;;;;;;53.60;32.97;;;;;;;;;;5031710;28;20130;-63
2023/02/22 08:10:31;;;;;;;50.67;30.95;;;;;;;;;;5014173;28;20021;-63
2023/02/22 08:12:58;;;;;;;59.17;33.22;;;;;;;;;;5014332;28;20037;-62
2023/02/22 08:15:24;;;;;;;49.50;30.45;;;;;;;;;;5031596;28;20026;-64
2023/02/22 08:17:50;;;;;;;33.90;26.02;;;;;;;;;;5031842;28;20068;-65
2023/02/22 08:20:16;;;;;;;37.92;27.33;;;;;;;;;;5031598;28;20040;-65
2023/02/22 08:22:43;;;;;;;41.85;29.38;;;;;;;;;;5031297;28;20147;-67
2023/02/22 08:25:09;;;;;;;48.15;31.05;;;;;;;;;;5030538;28;20096;-64
2023/02/22 08:27:35;;;;;;;45.92;29.23;;;;;;;;;;5031331;28;20026;-65
2023/02/22 08:30:01;;;;;;;42.47;27.63;;;;;;;;;;5031469;28;20028;-65
2023/02/22 08:32:27;;;;;;;34.15;25.23;;;;;;;;;;5013536;28;20025;-65
2023/02/22 08:34:53;;;;;;;35.58;26.08;;;;;;;;;;5030454;28;20017;-65
2023/02/22 08:37:19;;;;;;;31.48;24.02;;;;;;;;;;5030606;28;20026;-62
2023/02/22 08:39:45;;;;;;;33.88;25.38;;;;;;;;;;5030983;28;20029;-62
2023/02/22 08:42:11;;;;;;;35.47;25.55;;;;;;;;;;5031273;28;20091;-62
2023/02/22 08:44:38;;;;;;;39.83;26.27;;;;;;;;;;5030376;28;20081;-62
2023/02/22 08:47:04;;;;;;;33.97;26.00;;;;;;;;;;5030943;28;20429;-62
2023/02/22 08:49:30;;;;;;;32.83;25.88;;;;;;;;;;5030959;28;20041;-54
2023/02/22 08:51:56;;;;;;;32.97;25.95;;;;;;;;;;5031047;28;20078;-59
2023/02/22 08:54:22;;;;;;;52.33;29.67;;;;;;;;;;5030314;28;20064;-62
2023/02/22 08:56:48;;;;;;;38.97;27.77;;;;;;;;;;5030783;28;20485;-61
2023/02/22 08:59:15;;;;;;;39.15;27.00;;;;;;;;;;5030715;28;20075;-62
2023/02/22 09:01:41;;;;;;;30.73;24.35;;;;;;;;;;5031029;28;20040;-61
2023/02/22 09:04:07;;;;;;;41.75;28.10;;;;;;;;;;5030141;28;20045;-61
2023/02/22 09:06:33;;;;;;;36.45;26.85;;;;;;;;;;5030618;28;20026;-59
2023/02/22 09:08:59;;;;;;;34.42;26.05;;;;;;;;;;5030380;28;20045;-62
2023/02/22 09:11:25;;;;;;;43.30;29.92;;;;;;;;;;5030652;28;20093;-60
2023/02/22 09:13:51;;;;;;;47.47;29.20;;;;;;;;;;5029632;28;20025;-61
2023/02/22 09:16:17;;;;;;;59.08;33.75;;;;;;;;;;5030308;28;20041;-62
2023/02/22 09:18:43;;;;;;;41.83;27.83;;;;;;;;;;5030297;28;20520;-60
2023/02/22 09:21:10;;;;;;;36.47;26.92;;;;;;;;;;5030362;28;20093;-62
2023/02/22 09:23:36;;;;;;;30.75;24.23;;;;;;;;;;5028398;28;20366;-60
2023/02/22 09:26:02;;;;;;;32.45;23.00;;;;;;;;;;5020777;28;20509;-63
2023/02/22 09:28:28;;;;;;;32.10;23.75;;;;;;;;;;5029433;28;20061;-65
2023/02/22 09:30:55;;;;;;;30.88;22.85;;;;;;;;;;5021339;28;20029;-62
2023/02/22 09:33:21;;;;;;;26.35;21.60;;;;;;;;;;5029455;28;20029;-62
2023/02/22 09:35:48;;;;;;;26.08;20.88;;;;;;;;;;5012496;28;20108;-63
2023/02/22 09:38:21;;;;;;;25.67;20.70;;;;;;;;;;5012624;28;20029;-62
2023/02/22 09:40:57;;;;;;;27.67;22.00;;;;;;;;;;5030469;28;20099;-66
2023/02/22 09:43:27;;;;;;;28.25;20.55;;;;;;;;;;5012009;28;20049;-63
2023/02/22 09:46:02;;;;;;;26.25;20.80;;;;;;;;;;5030259;28;20152;-64
2023/02/22 09:48:30;;;;;;;25.42;20.08;;;;;;;;;;5029724;28;20093;-65
2023/02/22 09:50:58;;;;;;;26.20;20.08;;;;;;;;;;5012397;28;20040;-64
2023/02/22 09:53:36;;;;;;;26.75;19.98;;;;;;;;;;5029595;28;20071;-65
2023/02/22 09:56:09;;;;;;;27.15;21.02;;;;;;;;;;5030019;28;20025;-65
2023/02/22 09:58:41;;;;;;;26.23;19.80;;;;;;;;;;5030195;28;20022;-64
2023/02/22 10:01:13;;;;;;;24.58;20.27;;;;;;;;;;5029020;28;20486;-65
2023/02/22 10:03:59;;;;;;;26.92;19.65;;;;;;;;;;5029629;28;20082;-64
2023/02/22 10:06:25;;;;;;;26.15;19.75;;;;;;;;;;5010158;28;20069;-65
2023/02/22 10:08:55;;;;;;;27.23;19.85;;;;;;;;;;5029921;28;20095;-65
2023/02/22 10:11:24;;;;;;;27.52;20.23;;;;;;;;;;5030121;28;20152;-66
2023/02/22 10:13:50;;;;;;;26.95;20.00;;;;;;;;;;5012556;28;20040;-65
2023/02/22 10:16:31;;;;;;;24.83;19.30;;;;;;;;;;5030927;28;20025;-64
2023/02/22 10:19:16;;;;;;;27.90;21.27;;;;;;;;;;5012920;28;20435;-65
2023/02/22 10:21:48;;;;;;;28.33;20.38;;;;;;;;;;5029910;28;20136;-65
2023/02/22 10:24:38;;;;;;;31.25;21.33;;;;;;;;;;5029300;28;20029;-65
2023/02/22 10:27:07;;;;;;;25.95;19.75;;;;;;;;;;5017683;28;20519;-65
2023/02/22 10:29:33;;;;;;;;;;;;;;;;;;5030473;28;20119;-65
2023/02/22 10:32:03;;;;;;;24.85;19.23;;;;;;;;;;5012188;28;20349;-65
2023/02/22 10:34:32;;;;;;;27.05;21.25;;;;;;;;;;5029140;28;20474;-64
2023/02/22 10:37:02;;;;;;;25.15;19.73;;;;;;;;;;5029765;28;20115;-67
2023/02/22 10:39:33;;;;;;;29.23;20.17;;;;;;;;;;5029396;28;20156;-65
2023/02/22 10:42:07;;;;;;;26.15;19.15;;;;;;;;;;5029663;28;20540;-65
2023/02/22 10:44:34;;;;;;;26.30;20.20;;;;;;;;;;5011245;28;20025;-65
2023/02/22 10:47:04;;;;;;;28.67;21.17;;;;;;;;;;5029682;28;20116;-65
2023/02/22 10:49:35;;;;;;;26.33;20.38;;;;;;;;;;5029564;28;20032;-65
2023/02/22 10:52:03;;;;;;;26.52;20.25;;;;;;;;;;5011732;28;20425;-62
2023/02/22 10:54:39;;;;;;;27.27;19.27;;;;;;;;;;5028913;28;20018;-64
2023/02/22 10:57:05;;;;;;;26.10;18.70;;;;;;;;;;5029660;28;20033;-65
2023/02/22 10:59:33;;;;;;;27.65;20.98;;;;;;;;;;5029470;28;20037;-65
2023/02/22 11:01:59;;;;;;;29.42;20.42;;;;;;;;;;5013819;28;20391;-64
2023/02/22 11:04:26;;;;;;;25.85;19.17;;;;;;;;;;5031843;28;20053;-64
2023/02/22 11:06:58;;;;;;;28.15;18.48;;;;;;;;;;5032636;28;20088;-65
2023/02/22 11:09:25;;;;;;;25.52;18.65;;;;;;;;;;5035294;28;20020;-64
2023/02/22 11:12:09;;;;;;;33.10;19.05;;;;;;;;;;5038503;28;20078;-62
2023/02/22 11:14:35;;;;;;;28.80;20.38;;;;;;;;;;5032875;28;20025;-65
2023/02/22 11:17:06;;;;;;;27.23;19.92;;;;;;;;;;5027464;28;20136;-64
2023/02/22 11:19:32;;;;;;;25.92;20.55;;;;;;;;;;5029371;28;20025;-65
2023/02/22 11:22:08;;;;;;;27.50;19.70;;;;;;;;;;5032845;28;20030;-64
2023/02/22 11:24:43;;;;;;;25.70;18.98;;;;;;;;;;5032504;28;20197;-64
2023/02/22 11:27:21;;;;;;;25.13;18.10;;;;;;;;;;5032720;28;20033;-62
2023/02/22 11:29:49;;;;;;;24.17;18.75;;;;;;;;;;5032714;28;20025;-64
2023/02/22 11:32:21;;;;;;;23.58;18.15;;;;;;;;;;5032454;28;20049;-64
2023/02/22 11:34:52;;;;;;;24.60;17.70;;;;;;;;;;5032118;28;20382;-65
2023/02/22 11:37:24;;;;;;;24.45;18.08;;;;;;;;;;5032842;28;20025;-63
2023/02/22 11:40:04;;;;;;;23.67;17.27;;;;;;;;;;5026208;28;20118;-65
2023/02/22 11:42:30;;;;;;;26.58;17.80;;;;;;;;;;5032284;28;20433;-65
2023/02/22 11:45:13;;;;;;;23.88;17.75;;;;;;;;;;5031610;28;20075;-64
2023/02/22 11:47:46;;;;;;;26.63;18.83;;;;;;;;;;5029546;28;20053;-64
2023/02/22 11:50:19;;;;;;;23.00;18.02;;;;;;;;;;5032359;28;20025;-64
2023/02/22 11:52:47;;;;;;;23.40;17.38;;;;;;;;;;5032176;28;20485;-64
2023/02/22 11:55:42;;;;;;;24.73;18.15;;;;;;;;;;5031732;28;20021;-64
2023/02/22 11:58:23;;;;;;;25.15;18.05;;;;;;;;;;5015284;28;20091;-65
2023/02/22 12:00:57;;;;;;;24.25;17.92;;;;;;;;;;5014514;28;20033;-66
2023/02/22 12:03:42;;;;;;;25.58;18.25;;;;;;;;;;5013884;28;20024;-64
2023/02/22 12:06:23;;;;;;;26.20;18.60;;;;;;;;;;4994735;28;20022;-65
2023/02/22 12:09:04;;;;;;;23.42;17.67;;;;;;;;;;5018050;28;20014;-64
2023/02/22 12:11:30;;;;;;;26.23;18.40;;;;;;;;;;5031365;28;20017;-65
2023/02/22 12:14:16;;;;;;;24.48;18.42;;;;;;;;;;5031509;28;20029;-65
2023/02/22 12:16:45;;;;;;;22.33;17.95;;;;;;;;;;5031876;28;20037;-65
2023/02/22 12:19:11;;;;;;;22.15;17.75;;;;;;;;;;5067759;22;20069;-64
2023/02/22 12:21:40;;;;;;;22.67;18.20;;;;;;;;;;5053112;28;20039;-63
2023/02/22 12:24:13;;;;;;;21.55;17.77;;;;;;;;;;5052062;28;20021;-61
2023/02/22 12:26:46;;;;;;;23.25;19.08;;;;;;;;;;5053056;28;20036;-63
2023/02/22 12:29:24;;;;;;;25.70;19.63;;;;;;;;;;5053168;28;20028;-63
2023/02/22 12:31:52;;;;;;;22.98;18.70;;;;;;;;;;5052927;28;20312;-62
2023/02/22 12:34:25;;;;;;;23.95;18.35;;;;;;;;;;5052908;28;20025;-63
2023/02/22 12:36:53;;;;;;;23.30;19.10;;;;;;;;;;5052994;28;20485;-63
2023/02/22 12:39:38;;;;;;;22.88;18.35;;;;;;;;;;5034624;28;20442;-63
2023/02/22 12:42:08;;;;;;;24.45;19.08;;;;;;;;;;5052213;28;20079;-67
2023/02/22 12:44:36;;;;;;;25.75;18.63;;;;;;;;;;5033885;28;20419;-62
2023/02/22 12:47:04;;;;;;;22.58;18.63;;;;;;;;;;5034206;28;20516;-61
2023/02/22 12:49:34;;;;;;;23.80;18.67;;;;;;;;;;5051883;28;20454;-63
2023/02/22 12:52:00;;;;;;;21.23;17.63;;;;;;;;;;5034470;28;20107;-63
2023/02/22 12:54:45;;;;;;;23.30;18.42;;;;;;;;;;5050924;28;20481;-63
2023/02/22 12:57:17;;;;;;;23.00;18.13;;;;;;;;;;5051787;28;20112;-62
2023/02/22 13:00:14;;;;;;;24.67;17.73;;;;;;;;;;5051808;28;20036;-63
2023/02/22 13:02:43;;;;;;;26.48;18.52;;;;;;;;;;4965405;28;20102;-61
2023/02/22 13:05:16;;;;;;;23.20;18.20;;;;;;;;;;5051582;28;20036;-63
2023/02/22 13:07:48;;;;;;;29.98;25.02;;;;;;;;;;5034478;28;20029;-64
2023/02/22 13:10:27;;;;;;;32.10;27.42;;;;;;;;;;5051863;28;20021;-65
2023/02/22 13:12:53;;;;;;;;;;;;;;;;;;5052573;28;20032;-60
2023/02/22 13:15:22;;;;;;;24.20;18.75;;;;;;;;;;5051299;28;19905;-59
2023/02/22 13:18:00;;;;;;;36.90;31.63;;;;;;;;;;5051831;28;20025;-63
2023/02/22 13:20:29;;;;;;;61.83;50.55;;;;;;;;;;5052158;28;20497;-62
2023/02/22 13:22:55;;;;;;;27.02;21.92;;;;;;;;;;5051751;28;20040;-62
2023/02/22 13:25:24;;;;;;;23.92;18.67;;;;;;;;;;5032800;28;20017;-59
2023/02/22 13:27:54;;;;;;;25.48;18.95;;;;;;;;;;5033432;28;20025;-62
2023/02/22 13:30:26;;;;;;;23.02;18.52;;;;;;;;;;5051118;28;20485;-63
2023/02/22 13:32:53;;;;;;;22.38;18.02;;;;;;;;;;5032907;28;20021;-63
2023/02/22 13:35:37;;;;;;;22.85;18.65;;;;;;;;;;5032150;28;20031;-64
2023/02/22 13:38:22;;;;;;;25.20;18.10;;;;;;;;;;5049148;28;20025;-63
2023/02/22 13:40:54;;;;;;;22.80;19.42;;;;;;;;;;5051684;28;20543;-64
2023/02/22 13:43:20;;;;;;;24.42;18.85;;;;;;;;;;5048164;28;20025;-64
2023/02/22 13:46:12;;;;;;;26.15;19.42;;;;;;;;;;5032985;28;20025;-60
2023/02/22 13:48:44;;;;;;;23.13;18.50;;;;;;;;;;5050249;28;20059;-62
2023/02/22 13:51:28;;;;;;;21.88;19.10;;;;;;;;;;5045590;28;20023;-63
2023/02/22 13:54:30;;;;;;;23.80;18.58;;;;;;;;;;5049485;28;20118;-63
2023/02/22 13:56:56;;;;;;;28.55;19.35;;;;;;;;;;4971413;28;20034;-65
2023/02/22 13:59:28;;;;;;;24.90;19.30;;;;;;;;;;5039150;28;20124;-65
2023/02/22 14:01:55;;;;;;;22.38;17.40;;;;;;;;;;5033453;28;20021;-65
2023/02/22 14:04:26;;;;;;;26.02;19.08;;;;;;;;;;5050353;28;20520;-63
2023/02/22 14:07:11;;;;;;;26.75;18.75;;;;;;;;;;5048984;28;20031;-63
2023/02/22 14:09:54;;;;;;;26.52;19.08;;;;;;;;;;5049267;28;20025;-65
2023/02/22 14:12:30;;;;;;;22.58;18.20;;;;;;;;;;5049663;28;20017;-66
2023/02/22 14:15:08;;;;;;;21.50;17.70;;;;;;;;;;5047958;28;20512;-65
2023/02/22 14:17:34;;;;;;;24.42;18.88;;;;;;;;;;5049438;28;20496;-64
2023/02/22 14:20:13;;;;;;;25.50;18.55;;;;;;;;;;5050502;28;20041;-65
2023/02/22 14:22:39;;;;;;;25.73;17.30;;;;;;;;;;5032781;28;20473;-64
2023/02/22 14:25:05;;;;;;;22.80;17.38;;;;;;;;;;5050471;28;20500;-65